Time;durP1;ratioP1;P1;durP2;ratioP2;P2;SDS_P1;SDS_P2;PMS_P1;PMS_P2;Temp;Humidity;BMP_temperature;BMP_pressure;BME280_temperature;BME280_humidity;BME280_pressure;Samples;Min_cycle;Max_cycle;Signal;HPM_P1;HPM_P2
2023/10/25 00:01:41;;;;;;;;;;;;;;;17.82;82.60;98976.66;5415110;32;33340;-70
2023/10/25 00:04:56;;;;;;;;;;;;;;;17.19;86.55;98973.47;5440999;32;33199;-74
2023/10/25 00:08:07;;;;;;;;;;;;;;;17.20;86.02;98963.72;5411938;32;34327;-75
2023/10/25 00:11:17;;;;;;;;;;;;;;;17.29;85.25;98958.41;5410147;32;33633;-70
2023/10/25 00:14:41;;;;;;;;;;;;;;;17.57;83.38;98954.09;5414664;32;35403;-74
2023/10/25 00:17:52;;;;;;;;;;;;;;;17.72;82.87;98964.37;5425761;32;34649;-70
2023/10/25 00:21:03;;;;;;;;;;;;;;;17.07;86.19;98953.34;5414862;32;34985;-75
2023/10/25 00:24:18;;;;;;;;;;;;;;;17.20;87.27;98945.97;5422186;32;34736;-75
2023/10/25 00:27:45;;;;;;;;;;;;;;;17.02;88.25;98939.63;5443105;32;34903;-73
2023/10/25 00:30:56;;;;;;;;;;;;;;;17.01;86.67;98936.16;5423925;32;34993;-71
2023/10/25 00:34:08;;;;;;;;;;;;;;;17.71;83.73;98929.00;5421885;32;36471;-70
2023/10/25 00:37:27;;;;;;;;;;;;;;;17.60;84.37;98926.44;5419593;32;32900;-70
2023/10/25 00:40:37;;;;;;;;;;;;;;;17.63;85.61;98915.50;5424823;32;33271;-71
2023/10/25 00:43:48;;;;;;;;;;;;;;;17.60;86.02;98907.84;5415125;32;33666;-75
2023/10/25 00:47:03;;;;;;;;;;;;;;;17.88;84.77;98906.16;5413871;32;37199;-76
2023/10/25 00:50:18;;;;;;;;;;;;;;;18.59;80.38;98903.84;5437626;32;33440;-70
2023/10/25 00:53:26;;;;;;;;;;;;;;;18.98;77.46;98902.84;5416683;32;34485;-72
2023/10/25 00:56:29;;;;;;;;;;;;;;;18.88;77.28;98901.09;5424971;32;34888;-74
2023/10/25 00:59:31;;;;;;;;;;;;;;;18.41;79.55;98909.09;5429155;32;34779;-74
2023/10/25 01:02:33;;;;;;;;;;;;;;;18.37;80.03;98904.22;5411937;32;34700;-74
2023/10/25 01:05:36;;;;;;;;;;;;;;;18.24;81.49;98901.06;5436657;32;37792;-75
2023/10/25 01:08:38;;;;;;;;;;;;;;;18.17;83.00;98891.97;5428971;32;34610;-75
2023/10/25 01:11:41;;;;;;;;;;;;;;;17.90;84.44;98887.41;5426558;32;34837;-75
2023/10/25 01:14:43;;;;;;;;;;;;;;;18.40;81.44;98879.97;5429609;32;34800;-74
2023/10/25 01:17:46;;;;;;;;;;;;;;;18.40;80.65;98875.50;5441271;32;34657;-74
2023/10/25 01:20:48;;;;;;;;;;;;;;;18.33;81.21;98858.44;5444260;32;34150;-70
2023/10/25 01:23:51;;;;;;;;;;;;;;;18.77;78.49;98837.41;5439299;32;35009;-75
2023/10/25 01:26:54;;;;;;;;;;;;;;;18.31;80.33;98827.69;5435817;32;35107;-75
2023/10/25 01:29:56;;;;;;;;;;;;;;;18.43;80.45;98831.81;5440419;32;35024;-74
2023/10/25 01:32:58;;;;;;;;;;;;;;;17.92;82.01;98795.94;5438750;32;35750;-74
2023/10/25 01:36:01;;;;;;;;;;;;;;;17.19;88.08;98800.91;5429883;32;34459;-71
2023/10/25 01:39:03;;;;;;;;;;;;;;;18.23;82.84;98793.00;5437560;32;34810;-71
2023/10/25 01:42:05;;;;;;;;;;;;;;;18.07;81.54;98793.62;5444897;32;34855;-74
2023/10/25 01:45:07;;;;;;;;;;;;;;;17.92;83.64;98787.97;5436872;32;35422;-70
2023/10/25 01:48:09;;;;;;;;;;;;;;;18.40;80.38;98793.03;5422322;32;34588;-72
2023/10/25 01:51:12;;;;;;;;;;;;;;;18.25;81.19;98767.94;5444311;32;35134;-71
2023/10/25 01:54:14;;;;;;;;;;;;;;;18.29;81.35;98772.00;5438340;32;35225;-75
2023/10/25 01:57:16;;;;;;;;;;;;;;;18.39;80.58;98787.88;5444205;32;35405;-70
2023/10/25 02:00:19;;;;;;;;;;;;;;;18.78;78.53;98801.81;5434402;32;35301;-70
2023/10/25 02:03:21;;;;;;;;;;;;;;;18.75;78.28;98802.13;5426603;32;35394;-75
2023/10/25 02:06:23;;;;;;;;;;;;;;;18.32;79.91;98786.81;5434450;32;34624;-71
2023/10/25 02:09:25;;;;;;;;;;;;;;;18.04;81.55;98788.63;5436741;32;34347;-73
2023/10/25 02:12:28;;;;;;;;;;;;;;;17.51;85.54;98789.13;5442220;32;35110;-70
2023/10/25 02:15:30;;;;;;;;;;;;;;;17.89;85.75;98785.56;5439672;32;35434;-75
2023/10/25 02:18:32;;;;;;;;;;;;;;;18.57;81.03;98786.09;5443429;32;35176;-70
2023/10/25 02:21:37;;;;;;;;;;;;;;;18.61;80.33;98787.47;5439837;32;34671;-71
2023/10/25 02:24:39;;;;;;;;;;;;;;;18.79;79.08;98779.53;5441802;32;36349;-73
2023/10/25 02:27:41;;;;;;;;;;;;;;;19.13;76.50;98781.53;5434817;32;35315;-71
2023/10/25 02:30:44;;;;;;;;;;;;;;;19.01;76.85;98770.28;5430829;32;34355;-76
2023/10/25 02:33:46;;;;;;;;;;;;;;;18.82;77.61;98773.91;5427623;32;34528;-71
2023/10/25 02:36:48;;;;;;;;;;;;;;;18.77;77.85;98770.88;5417901;32;34357;-74
2023/10/25 02:39:50;;;;;;;;;;;;;;;18.69;78.99;98776.13;5440151;32;35482;-71
2023/10/25 02:42:53;;;;;;;;;;;;;;;18.88;77.72;98765.34;5420529;32;34888;-71
2023/10/25 02:46:02;;;;;;;;;;;;;;;18.85;77.68;98765.63;5428515;32;35025;-75
2023/10/25 02:49:04;;;;;;;;;;;;;;;18.52;79.07;98758.25;5424817;32;35104;-75
2023/10/25 02:52:07;;;;;;;;;;;;;;;18.49;80.38;98755.91;5422118;32;33966;-70
2023/10/25 02:55:09;;;;;;;;;;;;;;;17.51;84.95;98765.22;5437305;32;34903;-71
2023/10/25 02:58:11;;;;;;;;;;;;;;;17.99;85.23;98746.50;5438570;32;34839;-76
2023/10/25 03:01:23;;;;;;;;;;;;;;;18.44;82.58;98743.06;5437520;32;34958;-70
2023/10/25 03:04:26;;;;;;;;;;;;;;;18.64;80.50;98754.41;5436962;32;34966;-70
2023/10/25 03:07:28;;;;;;;;;;;;;;;18.49;81.00;98751.44;5439054;32;34578;-74
2023/10/25 03:10:30;;;;;;;;;;;;;;;18.77;79.58;98744.25;5442556;32;35438;-70
2023/10/25 03:13:32;;;;;;;;;;;;;;;18.55;80.22;98744.69;5438491;32;34445;-75
2023/10/25 03:16:34;;;;;;;;;;;;;;;18.66;79.47;98736.47;5424858;32;34663;-74
2023/10/25 03:19:37;;;;;;;;;;;;;;;18.61;79.89;98733.41;5438883;32;35111;-70
2023/10/25 03:22:39;;;;;;;;;;;;;;;18.59;79.54;98730.91;5445723;32;34234;-70
2023/10/25 03:25:41;;;;;;;;;;;;;;;18.32;81.77;98737.09;5432394;32;36525;-74
2023/10/25 03:28:43;;;;;;;;;;;;;;;18.12;81.95;98743.53;5424309;32;35243;-71
2023/10/25 03:31:45;;;;;;;;;;;;;;;18.27;82.98;98743.84;5429365;32;35084;-74
2023/10/25 03:34:50;;;;;;;;;;;;;;;17.96;83.37;98751.28;5440055;32;35224;-74
2023/10/25 03:37:52;;;;;;;;;;;;;;;17.39;88.73;98772.53;5446901;32;35017;-74
2023/10/25 03:41:02;;;;;;;;;;;;;;;17.29;88.84;98767.22;5427089;32;35625;-71
2023/10/25 03:44:04;;;;;;;;;;;;;;;16.47;89.37;98772.03;5429222;32;34373;-73
2023/10/25 03:47:06;;;;;;;;;;;;;;;15.65;91.23;98773.00;5438554;32;35107;-71
2023/10/25 03:50:09;;;;;;;;;;;;;;;15.60;91.83;98783.13;5439660;32;34841;-75
2023/10/25 03:53:11;;;;;;;;;;;;;;;15.56;91.47;98781.69;5444110;32;34636;-72
2023/10/25 03:56:13;;;;;;;;;;;;;;;15.49;94.96;98787.63;5440286;32;34776;-71
2023/10/25 03:59:16;;;;;;;;;;;;;;;15.03;95.74;98788.84;5442045;32;35459;-75
2023/10/25 04:02:18;;;;;;;;;;;;;;;15.23;90.95;98793.31;5437131;32;34885;-75
2023/10/25 04:05:20;;;;;;;;;;;;;;;15.44;89.40;98791.50;5442148;32;35982;-70
2023/10/25 04:08:23;;;;;;;;;;;;;;;14.90;92.30;98797.78;5438940;32;34833;-75
2023/10/25 04:11:25;;;;;;;;;;;;;;;14.96;91.23;98803.53;5426065;32;34288;-70
2023/10/25 04:14:27;;;;;;;;;;;;;;;14.65;91.96;98813.97;5442926;32;35425;-74
2023/10/25 04:17:30;;;;;;;;;;;;;;;14.74;90.47;98812.37;5433554;32;35466;-70
2023/10/25 04:20:32;;;;;;;;;;;;;;;14.83;90.66;98825.72;5440384;32;35320;-69
2023/10/25 04:23:34;;;;;;;;;;;;;;;15.00;89.32;98826.94;5425385;32;34826;-76
2023/10/25 04:26:36;;;;;;;;;;;;;;;14.71;90.27;98828.50;5447032;32;34718;-74
2023/10/25 04:29:39;;;;;;;;;;;;;;;14.76;90.22;98827.16;5439935;32;35246;-70
2023/10/25 04:32:42;;;;;;;;;;;;;;;14.78;88.56;98840.25;5439575;32;35107;-70
2023/10/25 04:35:44;;;;;;;;;;;;;;;14.58;89.81;98842.69;5444588;32;35581;-74
2023/10/25 04:38:47;;;;;;;;;;;;;;;14.96;88.33;98843.22;5414371;32;35853;-71
2023/10/25 04:41:49;;;;;;;;;;;;;;;14.79;87.74;98847.22;5444786;32;34966;-74
2023/10/25 04:44:51;;;;;;;;;;;;;;;14.94;87.15;98848.66;5440332;32;34114;-73
2023/10/25 04:47:53;;;;;;;;;;;;;;;14.94;86.89;98856.59;5439425;32;36355;-70
2023/10/25 04:50:55;;;;;;;;;;;;;;;14.92;86.02;98855.84;5439407;32;35123;-75
2023/10/25 04:53:58;;;;;;;;;;;;;;;14.51;88.11;98864.47;5412347;32;35933;-71
2023/10/25 04:57:00;;;;;;;;;;;;;;;14.55;87.75;98877.31;5442404;32;35362;-71
2023/10/25 05:00:03;;;;;;;;;;;;;;;14.84;86.61;98872.34;5424677;32;35196;-71
2023/10/25 05:03:10;;;;;;;;;;;;;;;14.97;87.11;98881.94;5438233;32;34983;-75
2023/10/25 05:06:13;;;;;;;;;;;;;;;14.77;87.05;98876.44;5438920;32;34152;-75
2023/10/25 05:09:15;;;;;;;;;;;;;;;15.17;84.89;98889.94;5440148;32;34600;-71
2023/10/25 05:12:17;;;;;;;;;;;;;;;15.18;83.94;98891.59;5439562;32;34987;-71
2023/10/25 05:15:20;;;;;;;;;;;;;;;14.55;85.52;98901.09;5423013;32;34493;-74
2023/10/25 05:18:22;;;;;;;;;;;;;;;14.93;86.01;98899.84;5443003;32;34357;-75
2023/10/25 05:21:26;;;;;;;;;;;;;;;15.28;83.10;98912.03;5440279;32;34318;-74
2023/10/25 05:24:28;;;;;;;;;;;;;;;14.57;88.64;98923.00;5427867;32;35421;-74
2023/10/25 05:27:30;;;;;;;;;;;;;;;14.95;84.04;98921.75;5430429;32;35362;-76
2023/10/25 05:30:32;;;;;;;;;;;;;;;14.54;86.32;98933.78;5439509;32;35713;-71
2023/10/25 05:33:34;;;;;;;;;;;;;;;14.45;86.06;98938.94;5440247;32;35449;-70
2023/10/25 05:36:36;;;;;;;;;;;;;;;15.38;82.74;98950.84;5438499;32;35389;-74
2023/10/25 05:39:39;;;;;;;;;;;;;;;14.96;82.77;98949.87;5426716;32;35631;-74
2023/10/25 05:42:46;;;;;;;;;;;;;;;15.10;83.11;98967.28;5436502;32;34274;-76
2023/10/25 05:45:48;;;;;;;;;;;;;;;14.83;81.96;98970.34;5440494;32;34315;-67
2023/10/25 05:48:50;;;;;;;;;;;;;;;14.73;82.12;98986.06;5437624;32;34869;-71
2023/10/25 05:51:53;;;;;;;;;;;;;;;15.82;79.00;98982.63;5432208;32;34406;-71
2023/10/25 05:54:55;;;;;;;;;;;;;;;16.34;74.83;98986.22;5432625;32;34475;-68
2023/10/25 05:57:57;;;;;;;;;;;;;;;15.87;76.46;98993.69;5430190;32;34567;-69
2023/10/25 06:01:00;;;;;;;;;;;;;;;16.25;74.32;98993.97;5433977;32;34236;-70
2023/10/25 06:04:05;;;;;;;;;;;;;;;15.10;78.57;99004.34;5430903;32;34297;-69
2023/10/25 06:07:07;;;;;;;;;;;;;;;15.37;77.93;99015.34;5429103;32;34203;-69
2023/10/25 06:10:13;;;;;;;;;;;;;;;15.55;76.35;99015.69;5407940;32;35171;-73
2023/10/25 06:13:16;;;;;;;;;;;;;;;15.58;75.17;99028.66;5427916;32;34449;-67
2023/10/25 06:16:18;;;;;;;;;;;;;;;16.02;73.96;99036.62;5425677;32;35762;-70
2023/10/25 06:19:21;;;;;;;;;;;;;;;16.12;73.51;99050.81;5415146;32;34383;-70
2023/10/25 06:22:23;;;;;;;;;;;;;;;15.49;74.89;99063.84;5432859;32;35088;-67
2023/10/25 06:25:27;;;;;;;;;;;;;;;14.95;77.72;99075.19;5436180;32;34358;-72
2023/10/25 06:28:29;;;;;;;;;;;;;;;15.16;76.54;99076.16;5435487;32;34323;-68
2023/10/25 06:31:31;;;;;;;;;;;;;;;15.36;76.50;99084.31;5419458;32;35356;-68
2023/10/25 06:34:33;;;;;;;;;;;;;;;15.18;76.08;99083.97;5419733;32;34315;-72
2023/10/25 06:37:35;;;;;;;;;;;;;;;14.88;77.20;99095.16;5433148;32;34157;-70
2023/10/25 06:40:37;;;;;;;;;;;;;;;14.99;77.07;99081.91;5438033;32;34199;-76
2023/10/25 06:43:43;;;;;;;;;;;;;;;15.77;72.65;99094.25;5437352;32;34732;-77
2023/10/25 06:46:45;;;;;;;;;;;;;;;15.08;75.81;99115.59;5408566;32;35130;-74
2023/10/25 06:49:47;;;;;;;;;;;;;;;15.13;76.20;99110.81;5435598;32;34779;-73
2023/10/25 06:52:49;;;;;;;;;;;;;;;15.33;75.76;99116.34;5432890;32;34985;-72
2023/10/25 06:55:51;;;;;;;;;;;;;;;15.42;74.56;99116.44;5433554;32;34511;-71
2023/10/25 06:58:54;;;;;;;;;;;;;;;16.02;72.54;99106.34;5422564;32;36286;-72
2023/10/25 07:02:16;;;;;;;;;;;;;;;15.23;74.72;99107.44;5434024;32;34789;-74
2023/10/25 07:05:21;;;;;;;;;;;;;;;14.80;76.73;99108.09;5437172;32;35318;-75
2023/10/25 07:08:23;;;;;;;;;;;;;;;15.24;75.42;99106.47;5435982;32;34261;-72
2023/10/25 07:11:25;;;;;;;;;;;;;;;15.95;72.08;99119.25;5428463;32;34366;-73
2023/10/25 07:14:30;;;;;;;;;;;;;;;15.21;73.83;99114.66;5409043;32;33060;-70
2023/10/25 07:17:32;;;;;;;;;;;;;;;15.72;72.43;99122.13;5423823;32;35262;-71
2023/10/25 07:20:34;;;;;;;;;;;;;;;15.18;74.81;99113.91;5423643;32;33972;-74
2023/10/25 07:23:36;;;;;;;;;;;;;;;15.52;72.92;99116.56;5432880;32;37949;-71
2023/10/25 07:26:38;;;;;;;;;;;;;;;16.11;71.85;99116.22;5437526;32;34253;-77
2023/10/25 07:29:43;;;;;;;;;;;;;;;16.28;69.66;99108.69;5425628;32;34111;-69
2023/10/25 07:32:45;;;;;;;;;;;;;;;15.92;71.25;99118.69;5422952;32;34373;-74
2023/10/25 07:35:47;;;;;;;;;;;;;;;16.40;68.82;99118.25;5403079;32;35300;-79
2023/10/25 07:38:49;;;;;;;;;;;;;;;16.74;67.68;99117.19;5414818;32;33982;-75
2023/10/25 07:41:51;;;;;;;;;;;;;;;16.39;68.23;99109.47;5436856;32;35236;-77
2023/10/25 07:44:53;;;;;;;;;;;;;;;16.27;68.98;99115.78;5419418;32;35455;-75
2023/10/25 07:47:56;;;;;;;;;;;;;;;16.37;69.07;99131.78;5430548;32;35386;-68
2023/10/25 07:51:03;;;;;;;;;;;;;;;16.31;68.40;99133.13;5432729;32;34426;-70
2023/10/25 07:54:05;;;;;;;;;;;;;;;16.61;68.76;99139.50;5430428;32;34398;-74
2023/10/25 07:57:07;;;;;;;;;;;;;;;17.37;66.04;99146.28;5432777;32;34041;-72
2023/10/25 08:00:12;;;;;;;;;;;;;;;17.49;64.19;99155.00;5436592;32;34142;-72
2023/10/25 08:03:17;;;;;;;;;;;;;;;17.39;65.33;99164.72;5417074;32;34343;-71
2023/10/25 08:06:20;;;;;;;;;;;;;;;17.96;64.12;99173.91;5427200;32;32705;-73
2023/10/25 08:09:23;;;;;;;;;;;;;;;17.55;64.16;99162.44;5417109;32;34750;-77
2023/10/25 08:12:28;;;;;;;;;;;;;;;17.87;63.62;99164.94;5417820;32;33990;-76
2023/10/25 08:15:30;;;;;;;;;;;;;;;17.80;62.97;99182.41;5428831;32;33961;-72
2023/10/25 08:18:33;;;;;;;;;;;;;;;17.96;61.25;99200.50;5436287;32;34849;-72
2023/10/25 08:21:35;;;;;;;;;;;;;;;17.20;63.70;99203.50;5399022;32;34929;-70
2023/10/25 08:24:40;;;;;;;;;;;;;;;17.75;62.52;99204.06;5439020;32;35007;-72
2023/10/25 08:27:43;;;;;;;;;;;;;;;17.06;63.72;99190.53;5415700;32;39880;-71
2023/10/25 08:30:45;;;;;;;;;;;;;;;17.28;63.46;99190.41;5439939;32;34541;-70
2023/10/25 08:33:47;;;;;;;;;;;;;;;17.70;62.22;99189.47;5441178;32;34259;-70
2023/10/25 08:36:49;;;;;;;;;;;;;;;16.56;65.89;99203.56;5416094;32;34697;-75
2023/10/25 08:39:51;;;;;;;;;;;;;;;18.01;61.73;99204.44;5436782;32;34166;-74
2023/10/25 08:42:53;;;;;;;;;;;;;;;18.41;60.48;99211.50;5422847;32;34820;-72
2023/10/25 08:45:58;;;;;;;;;;;;;;;18.29;60.81;99221.44;5423868;32;34276;-69
2023/10/25 08:49:02;;;;;;;;;;;;;;;18.44;59.73;99232.53;5445413;32;34706;-71
2023/10/25 08:52:05;;;;;;;;;;;;;;;17.81;61.93;99248.72;5437323;32;34238;-71
2023/10/25 08:55:08;;;;;;;;;;;;;;;16.52;65.28;99253.34;5433154;32;35109;-71
2023/10/25 08:58:10;;;;;;;;;;;;;;;16.98;63.95;99267.31;5440420;32;35085;-72
2023/10/25 09:01:12;;;;;;;;;;;;;;;16.75;65.03;99277.19;5423285;32;35433;-75
2023/10/25 09:04:14;;;;;;;;;;;;;;;17.68;62.61;99295.88;5421538;32;33486;-71
2023/10/25 09:07:29;;;;;;;;;;;;;;;17.55;62.32;99292.59;5437558;32;34164;-76
2023/10/25 09:10:31;;;;;;;;;;;;;;;18.16;60.87;99291.78;5425882;32;34225;-71
2023/10/25 09:13:34;;;;;;;;;;;;;;;17.96;62.19;99280.25;5422749;32;33623;-68
2023/10/25 09:16:37;;;;;;;;;;;;;;;17.02;63.84;99293.50;5440842;32;35027;-69
2023/10/25 09:19:42;;;;;;;;;;;;;;;17.04;62.59;99298.66;5439867;32;34336;-69
2023/10/25 09:22:44;;;;;;;;;;;;;;;17.70;61.33;99301.06;5438011;32;35341;-73
2023/10/25 09:25:48;;;;;;;;;;;;;;;18.48;59.43;99304.91;5457065;32;34051;-77
2023/10/25 09:28:53;;;;;;;;;;;;;;;17.84;61.23;99311.41;5453423;32;34415;-72
2023/10/25 09:32:04;;;;;;;;;;;;;;;17.67;62.34;99307.50;5442669;32;34268;-71
2023/10/25 09:35:06;;;;;;;;;;;;;;;17.69;61.07;99321.50;5437187;32;34209;-68
2023/10/25 09:38:11;;;;;;;;;;;;;;;16.62;65.19;99303.84;5430339;32;37044;-69
2023/10/25 09:41:14;;;;;;;;;;;;;;;17.19;63.83;99307.16;5442135;32;34177;-72
2023/10/25 09:44:18;;;;;;;;;;;;;;;17.45;63.38;99312.94;5443808;32;35417;-74
2023/10/25 09:47:20;;;;;;;;;;;;;;;18.00;62.09;99325.03;5438491;32;34318;-67
2023/10/25 09:50:27;;;;;;;;;;;;;;;17.69;62.98;99329.47;5451887;32;34388;-66
2023/10/25 09:53:34;;;;;;;;;;;;;;;18.20;61.37;99335.75;5431924;32;36092;-74
2023/10/25 09:56:36;;;;;;;;;;;;;;;17.99;61.28;99338.47;5438288;32;34772;-70
2023/10/25 09:59:38;;;;;;;;;;;;;;;18.00;60.86;99332.19;5441854;32;34146;-70
2023/10/25 10:02:49;;;;;;;;;;;;;;;17.27;62.84;99324.16;5451496;32;36113;-70
2023/10/25 10:06:12;;;;;;;;;;;;;;;17.57;62.95;99311.91;5443788;32;35542;-68
2023/10/25 10:09:33;;;;;;;;;;;;;;;17.29;62.54;99319.53;5454858;32;34326;-79
2023/10/25 10:12:36;;;;;;;;;;;;;;;17.73;61.79;99317.63;5455740;32;33919;-70
2023/10/25 10:15:57;;;;;;;;;;;;;;;18.19;60.54;99318.97;5454191;32;35258;-76
2023/10/25 10:18:59;;;;;;;;;;;;;;;18.53;59.29;99322.16;5459615;32;34150;-72
2023/10/25 10:22:02;;;;;;;;;;;;;;;18.96;57.57;99317.50;5466401;32;34344;-72
2023/10/25 10:25:05;;;;;;;;;;;;;;;18.46;58.95;99320.16;5434805;32;34690;-69
2023/10/25 10:28:14;;;;;;;;;;;;;;;18.76;58.02;99306.84;5444203;32;34109;-70
2023/10/25 10:31:17;;;;;;;;;;;;;;;18.99;57.33;99302.06;5443727;32;35317;-74
2023/10/25 10:34:35;;;;;;;;;;;;;;;19.66;54.60;99300.37;5463422;32;34567;-73
2023/10/25 10:37:37;;;;;;;;;;;;;;;19.63;54.67;99300.63;5458019;32;35536;-71
2023/10/25 10:40:39;;;;;;;;;;;;;;;21.25;50.56;99296.41;5439270;32;33756;-70
2023/10/25 10:43:41;;;;;;;;;;;;;;;20.91;50.03;99284.72;5433869;32;35337;-70
2023/10/25 10:46:44;;;;;;;;;;;;;;;19.88;53.00;99291.16;5440235;32;35652;-69
2023/10/25 10:49:47;;;;;;;;;;;;;;;21.12;50.41;99284.41;5426553;32;36635;-76
2023/10/25 10:52:50;;;;;;;;;;;;;;;21.50;48.77;99280.56;5429812;32;35752;-73
2023/10/25 10:55:52;;;;;;;;;;;;;;;21.32;49.57;99281.44;5452022;32;34456;-70
2023/10/25 10:58:54;;;;;;;;;;;;;;;20.55;51.25;99279.38;5445203;32;34305;-68
2023/10/25 11:01:56;;;;;;;;;;;;;;;21.09;49.63;99274.88;5453618;32;35565;-69
2023/10/25 11:04:58;;;;;;;;;;;;;;;20.39;51.10;99271.13;5430705;32;34127;-77
2023/10/25 11:08:00;;;;;;;;;;;;;;;20.23;51.62;99275.31;5443954;32;35939;-79
2023/10/25 11:11:03;;;;;;;;;;;;;;;20.80;50.36;99264.41;5454367;32;34662;-77
2023/10/25 11:14:05;;;;;;;;;;;;;;;21.14;48.80;99261.91;5443526;32;34608;-67
2023/10/25 11:17:07;;;;;;;;;;;;;;;21.24;48.54;99259.97;5451755;32;34453;-67
2023/10/25 11:20:09;;;;;;;;;;;;;;;20.95;49.31;99246.03;5453184;32;34298;-68
2023/10/25 11:23:11;;;;;;;;;;;;;;;21.09;48.85;99254.34;5453610;32;34336;-69
2023/10/25 11:26:13;;;;;;;;;;;;;;;21.08;49.34;99257.16;5451846;32;35325;-68
2023/10/25 11:29:15;;;;;;;;;;;;;;;22.24;44.84;99244.38;5460107;32;34149;-72
2023/10/25 11:32:17;;;;;;;;;;;;;;;22.69;43.09;99244.00;5415587;32;34344;-74
2023/10/25 11:35:23;;;;;;;;;;;;;;;20.74;47.40;99257.03;5414306;32;36469;-71
2023/10/25 11:38:27;;;;;;;;;;;;;;;21.08;47.13;99257.16;5440718;32;34210;-77
2023/10/25 11:41:32;;;;;;;;;;;;;;;21.74;46.12;99269.19;5439563;32;34473;-82
2023/10/25 11:44:34;;;;;;;;;;;;;;;21.32;46.45;99275.28;5443027;32;35899;-73
2023/10/25 11:47:37;;;;;;;;;;;;;;;20.89;47.35;99271.53;5454819;32;34645;-70
2023/10/25 11:50:44;;;;;;;;;;;;;;;21.56;45.48;99262.06;5452743;32;34212;-69
2023/10/25 11:53:46;;;;;;;;;;;;;;;21.63;44.78;99263.09;5441279;32;34946;-70
2023/10/25 11:56:48;;;;;;;;;;;;;;;20.54;46.97;99249.16;5448725;32;35526;-69
2023/10/25 11:59:51;;;;;;;;;;;;;;;20.41;48.03;99243.31;5454296;32;35249;-69
2023/10/25 12:02:53;;;;;;;;;;;;;;;20.64;47.76;99253.59;5436076;32;34149;-73
2023/10/25 12:05:55;;;;;;;;;;;;;;;20.00;49.42;99256.16;5446219;32;35927;-72
2023/10/25 12:08:59;;;;;;;;;;;;;;;20.05;49.25;99238.91;5423213;32;32889;-76
2023/10/25 12:12:01;;;;;;;;;;;;;;;21.55;45.79;99246.19;5455732;32;34655;-67
2023/10/25 12:15:05;;;;;;;;;;;;;;;20.72;46.77;99237.66;5453703;32;34796;-69
2023/10/25 12:18:08;;;;;;;;;;;;;;;21.06;46.17;99243.12;5433282;32;37384;-77
2023/10/25 12:21:10;;;;;;;;;;;;;;;21.82;44.83;99239.81;5433112;32;35934;-75
2023/10/25 12:24:12;;;;;;;;;;;;;;;21.44;45.30;99241.09;5431230;32;34375;-73
2023/10/25 12:27:15;;;;;;;;;;;;;;;21.21;46.54;99246.09;5454655;32;35027;-71
2023/10/25 12:30:19;;;;;;;;;;;;;;;20.53;47.60;99226.13;5447562;32;34912;-72
2023/10/25 12:33:22;;;;;;;;;;;;;;;22.16;44.13;99221.09;5457057;32;34248;-69
2023/10/25 12:36:24;;;;;;;;;;;;;;;21.58;45.13;99213.81;5439360;32;34430;-71
2023/10/25 12:39:26;;;;;;;;;;;;;;;22.09;44.17;99212.91;5460784;32;34284;-74
2023/10/25 12:42:28;;;;;;;;;;;;;;;21.65;44.92;99214.00;5457484;32;33443;-67
2023/10/25 12:45:31;;;;;;;;;;;;;;;21.84;44.58;99211.94;5457315;32;34180;-70
2023/10/25 12:48:33;;;;;;;;;;;;;;;21.85;45.48;99210.09;5445059;32;36238;-69
2023/10/25 12:51:36;;;;;;;;;;;;;;;22.27;43.74;99206.56;5458200;32;35487;-70
2023/10/25 12:54:38;;;;;;;;;;;;;;;21.37;45.15;99217.66;5466201;32;34333;-70
2023/10/25 12:57:43;;;;;;;;;;;;;;;21.39;44.41;99214.84;5456997;32;36832;-71
2023/10/25 13:00:45;;;;;;;;;;;;;;;20.75;46.13;99214.16;5446362;32;36224;-70
2023/10/25 13:03:47;;;;;;;;;;;;;;;21.43;45.60;99221.53;5454021;32;34495;-74
2023/10/25 13:06:50;;;;;;;;;;;;;;;21.46;45.54;99210.56;5456659;32;35422;-71
2023/10/25 13:09:55;;;;;;;;;;;;;;;20.97;45.17;99196.81;5461788;32;34288;-71
2023/10/25 13:12:57;;;;;;;;;;;;;;;21.16;45.08;99201.13;5439962;32;34523;-73
2023/10/25 13:15:59;;;;;;;;;;;;;;;21.51;43.97;99207.38;5462420;32;35505;-75
2023/10/25 13:19:01;;;;;;;;;;;;;;;21.42;45.03;99206.50;5456510;32;34255;-70
2023/10/25 13:22:03;;;;;;;;;;;;;;;21.01;46.23;99206.19;5459473;32;34468;-73
2023/10/25 13:25:05;;;;;;;;;;;;;;;21.92;44.18;99205.75;5456480;32;34135;-72
2023/10/25 13:28:07;;;;;;;;;;;;;;;21.75;44.40;99212.88;5445411;32;35597;-76
2023/10/25 13:31:09;;;;;;;;;;;;;;;20.86;45.66;99218.41;5460852;32;35549;-78
2023/10/25 13:34:11;;;;;;;;;;;;;;;20.06;47.94;99216.56;5453220;32;34269;-70
2023/10/25 13:37:13;;;;;;;;;;;;;;;20.70;47.17;99212.94;5432259;32;34426;-72
2023/10/25 13:40:16;;;;;;;;;;;;;;;21.51;45.35;99210.91;5438281;32;34695;-74
2023/10/25 13:43:18;;;;;;;;;;;;;;;20.48;47.62;99217.75;5456780;32;34163;-77
2023/10/25 13:46:25;;;;;;;;;;;;;;;20.53;47.36;99202.09;5457925;32;34100;-76
2023/10/25 13:49:30;;;;;;;;;;;;;;;20.41;48.47;99226.44;5455020;32;34388;-74
2023/10/25 13:52:31;;;;;;;;;;;;;;;20.72;47.80;99230.47;5441879;32;34932;-75
2023/10/25 13:55:38;;;;;;;;;;;;;;;20.32;48.65;99220.19;5450650;32;34257;-74
2023/10/25 13:58:40;;;;;;;;;;;;;;;20.80;47.58;99197.66;5460902;32;34348;-81
2023/10/25 14:01:43;;;;;;;;;;;;;;;20.65;47.63;99193.87;5456237;32;34949;-78
2023/10/25 14:04:47;;;;;;;;;;;;;;;21.26;46.57;99201.03;5454824;32;34576;-71
2023/10/25 14:07:49;;;;;;;;;;;;;;;20.13;49.82;99204.31;5453624;32;35593;-71
2023/10/25 14:10:51;;;;;;;;;;;;;;;20.33;48.97;99199.69;5452621;32;34342;-70
2023/10/25 14:13:54;;;;;;;;;;;;;;;20.82;47.10;99201.03;5460523;32;34943;-77
2023/10/25 14:16:56;;;;;;;;;;;;;;;20.67;47.00;99200.72;5451036;32;34241;-79
2023/10/25 14:19:58;;;;;;;;;;;;;;;20.50;47.36;99196.25;5461540;32;35197;-77
2023/10/25 14:23:00;;;;;;;;;;;;;;;21.39;45.36;99196.16;5449043;32;35419;-69
2023/10/25 14:26:04;;;;;;;;;;;;;;;21.63;44.63;99203.44;5456513;32;34990;-76
2023/10/25 14:29:09;;;;;;;;;;;;;;;20.68;46.41;99206.91;5446445;32;35346;-70
2023/10/25 14:32:11;;;;;;;;;;;;;;;20.71;46.99;99204.78;5454531;32;34385;-70
2023/10/25 14:35:13;;;;;;;;;;;;;;;21.39;45.08;99201.50;5452245;32;35271;-66
2023/10/25 14:38:15;;;;;;;;;;;;;;;21.03;45.67;99201.53;5437506;32;35964;-70
2023/10/25 14:41:17;;;;;;;;;;;;;;;21.46;44.69;99199.03;5457381;32;35384;-71
2023/10/25 14:44:19;;;;;;;;;;;;;;;21.44;44.47;99203.66;5451849;32;34752;-68
2023/10/25 14:47:21;;;;;;;;;;;;;;;20.56;46.35;99203.63;5454394;32;35720;-71
2023/10/25 14:50:24;;;;;;;;;;;;;;;20.94;45.17;99202.47;5459987;32;35427;-69
2023/10/25 14:53:26;;;;;;;;;;;;;;;20.88;45.40;99195.06;5457325;32;35354;-67
2023/10/25 14:56:28;;;;;;;;;;;;;;;20.50;46.24;99194.41;5461445;32;34241;-69
2023/10/25 14:59:30;;;;;;;;;;;;;;;20.78;46.02;99194.31;5458270;32;35513;-68
2023/10/25 15:02:33;;;;;;;;;;;;;;;21.02;45.35;99193.69;5459642;32;35543;-72
2023/10/25 15:05:35;;;;;;;;;;;;;;;20.21;46.78;99202.56;5441947;32;35277;-69
2023/10/25 15:08:37;;;;;;;;;;;;;;;20.51;46.27;99195.25;5459629;32;35100;-71
2023/10/25 15:11:40;;;;;;;;;;;;;;;19.91;47.49;99187.72;5464328;32;34666;-71
2023/10/25 15:14:41;;;;;;;;;;;;;;;19.63;47.97;99188.69;5458701;32;35053;-69
2023/10/25 15:17:54;;;;;;;;;;;;;;;19.98;47.51;99183.47;5461515;32;34384;-71
2023/10/25 15:20:56;;;;;;;;;;;;;;;20.02;46.58;99187.50;5461953;32;34612;-69
2023/10/25 15:23:58;;;;;;;;;;;;;;;19.36;48.63;99186.81;5464871;32;34793;-70
2023/10/25 15:27:01;;;;;;;;;;;;;;;19.32;48.72;99180.06;5462694;32;34972;-69
2023/10/25 15:30:03;;;;;;;;;;;;;;;19.16;49.05;99183.34;5462023;32;34650;-70
2023/10/25 15:33:06;;;;;;;;;;;;;;;19.21;49.02;99179.28;5466677;32;35138;-70
2023/10/25 15:36:08;;;;;;;;;;;;;;;18.99;49.85;99174.25;5462973;32;35407;-71
2023/10/25 15:39:11;;;;;;;;;;;;;;;19.85;48.06;99168.81;5465099;32;34617;-68
2023/10/25 15:42:13;;;;;;;;;;;;;;;20.44;46.72;99162.94;5457831;32;34582;-69
2023/10/25 15:45:17;;;;;;;;;;;;;;;20.17;47.34;99160.34;5462322;32;35227;-68
2023/10/25 15:48:19;;;;;;;;;;;;;;;20.24;47.35;99153.41;5463078;32;35194;-68
2023/10/25 15:51:22;;;;;;;;;;;;;;;20.07;47.46;99143.56;5460785;32;34712;-68
2023/10/25 15:54:24;;;;;;;;;;;;;;;20.14;47.76;99148.13;5461286;32;35192;-70
2023/10/25 15:57:26;;;;;;;;;;;;;;;19.78;49.11;99144.59;5461578;32;35909;-70